createdAt,value
2022-12-19T00:00:50.510Z,84.14
2022-12-19T00:01:50.544Z,83.30
2022-12-19T00:02:50.713Z,82.99
2022-12-19T00:03:50.420Z,83.23
2022-12-19T00:04:50.521Z,83.80
2022-12-19T00:05:50.349Z,84.95
2022-12-19T00:06:50.471Z,85.43
2022-12-19T00:07:50.382Z,84.59
2022-12-19T00:08:50.451Z,84.17
2022-12-19T00:09:50.329Z,84.49
2022-12-19T00:10:50.572Z,84.39
2022-12-19T00:11:50.331Z,84.87
2022-12-19T00:12:50.390Z,83.93
2022-12-19T00:13:50.380Z,83.89
2022-12-19T00:14:50.369Z,82.22
2022-12-19T00:15:50.361Z,82.46
2022-12-19T00:16:50.370Z,83.09
2022-12-19T00:17:50.333Z,82.82
2022-12-19T00:18:50.189Z,83.48
2022-12-19T00:19:50.539Z,84.11
2022-12-19T00:20:50.240Z,84.53
2022-12-19T00:21:50.340Z,85.47
2022-12-19T00:22:50.990Z,85.05
2022-12-19T00:23:50.293Z,84.74
2022-12-19T00:24:50.150Z,84.74
2022-12-19T00:25:50.299Z,84.84
2022-12-19T00:26:50.182Z,84.42
2022-12-19T00:27:50.216Z,84.74
2022-12-19T00:28:50.150Z,84.78
2022-12-19T00:29:50.203Z,85.30
2022-12-19T00:30:50.143Z,86.10
2022-12-19T00:31:50.173Z,84.70
2022-12-19T00:32:50.159Z,83.97
2022-12-19T00:33:49.999Z,84.32
2022-12-19T00:34:50.160Z,83.86
2022-12-19T00:35:49.349Z,84.49
2022-12-19T00:36:50.143Z,83.44
2022-12-19T00:37:50.060Z,83.59
2022-12-19T00:38:50.129Z,84.11
2022-12-19T00:39:50.051Z,84.22
2022-12-19T00:40:50.160Z,83.90
2022-12-19T00:41:50.030Z,84.32
2022-12-19T00:42:53.531Z,84.74
2022-12-19T00:43:50.013Z,84.11
2022-12-19T00:44:50.250Z,84.56
2022-12-19T00:45:50.010Z,85.72
2022-12-19T00:46:52.660Z,85.19
2022-12-19T00:47:50.011Z,85.34
2022-12-19T00:48:49.903Z,85.75
2022-12-19T00:49:50.070Z,85.93
2022-12-19T00:50:49.821Z,85.47
2022-12-19T00:51:49.969Z,85.16
2022-12-19T00:52:49.861Z,84.22
2022-12-19T00:53:49.989Z,84.63
2022-12-19T00:54:50.061Z,84.95
2022-12-19T00:55:50.199Z,84.56
2022-12-19T00:56:50.400Z,84.50
2022-12-19T00:57:49.991Z,85.24
2022-12-19T00:58:49.909Z,86.07
2022-12-19T00:59:49.899Z,85.61
2022-12-19T01:00:49.944Z,85.75
2022-12-19T01:01:49.896Z,85.34
2022-12-19T01:02:49.917Z,85.34
2022-12-19T01:04:25.927Z,85.80
2022-12-19T01:04:50.312Z,86.22
2022-12-19T01:05:49.639Z,86.28
2022-12-19T01:06:49.811Z,86.38
2022-12-19T01:07:49.752Z,86.18
2022-12-19T01:08:49.790Z,85.44
2022-12-19T01:09:49.691Z,85.34
2022-12-19T01:10:49.771Z,85.65
2022-12-19T01:11:49.749Z,85.69
2022-12-19T01:12:49.959Z,86.22
2022-12-19T01:13:49.750Z,86.22
2022-12-19T01:14:49.770Z,86.00
2022-12-19T01:15:49.711Z,86.74
2022-12-19T01:16:48.932Z,86.63
2022-12-19T01:17:49.735Z,86.60
2022-12-19T01:18:50.491Z,86.35
2022-12-19T01:19:49.933Z,84.56
2022-12-19T01:20:49.571Z,84.50
2022-12-19T01:21:49.850Z,85.13
2022-12-19T01:22:49.539Z,84.71
2022-12-19T01:23:49.721Z,84.61
2022-12-19T01:24:49.703Z,85.75
2022-12-19T01:25:49.711Z,84.81
2022-12-19T01:26:49.583Z,84.71
2022-12-19T01:27:49.640Z,85.34
2022-12-19T01:28:49.499Z,84.29
2022-12-19T01:29:52.128Z,85.24
2022-12-19T01:30:49.549Z,85.24
2022-12-19T01:31:49.584Z,84.29
2022-12-19T01:32:49.512Z,84.29
2022-12-19T01:33:49.387Z,85.19
2022-12-19T01:34:49.549Z,84.56
2022-12-19T01:35:49.441Z,83.83
2022-12-19T01:36:49.512Z,83.17
2022-12-19T01:37:49.579Z,82.86
2022-12-19T01:38:49.602Z,83.27
2022-12-19T01:39:49.379Z,83.62
2022-12-19T01:40:49.671Z,83.48
2022-12-19T01:41:49.580Z,82.68
2022-12-19T01:42:49.508Z,83.27
2022-12-19T01:43:49.430Z,82.79
2022-12-19T01:44:49.560Z,83.87
2022-12-19T01:45:49.446Z,84.05
2022-12-19T01:46:49.491Z,83.45
2022-12-19T01:47:52.507Z,83.87
2022-12-19T01:48:49.322Z,84.39
2022-12-19T01:49:49.411Z,83.94
2022-12-19T01:51:00.122Z,83.87
2022-12-19T01:51:49.401Z,83.52
2022-12-19T01:52:49.190Z,83.73
2022-12-19T01:53:49.824Z,82.79
2022-12-19T01:54:49.210Z,83.06
2022-12-19T01:55:49.418Z,82.43
2022-12-19T01:56:49.118Z,82.33
2022-12-19T01:57:49.298Z,82.65
2022-12-19T01:58:49.256Z,82.16
2022-12-19T01:59:49.318Z,82.02
2022-12-19T02:00:49.186Z,82.12
2022-12-19T02:01:51.658Z,81.81
2022-12-19T02:02:49.449Z,81.92
2022-12-19T02:03:48.998Z,81.39
2022-12-19T02:04:49.159Z,82.47
2022-12-19T02:05:49.059Z,82.26
2022-12-19T02:06:49.378Z,82.79
2022-12-19T02:07:49.120Z,81.99
2022-12-19T02:08:49.174Z,82.76
2022-12-19T02:09:50.320Z,83.81
2022-12-19T02:10:49.743Z,83.84
2022-12-19T02:11:49.021Z,85.83
2022-12-19T02:12:49.123Z,85.06
2022-12-19T02:13:49.120Z,84.33
2022-12-19T02:14:49.310Z,84.22
2022-12-19T02:15:49.002Z,83.91
2022-12-19T02:16:49.101Z,83.59
2022-12-19T02:17:52.596Z,83.91
2022-12-19T02:18:48.819Z,83.81
2022-12-19T02:19:49.263Z,83.39
2022-12-19T02:20:49.051Z,84.54
2022-12-19T02:21:49.513Z,83.81
2022-12-19T02:22:48.834Z,83.39
2022-12-19T02:23:49.047Z,84.01
2022-12-19T02:24:48.812Z,84.79
2022-12-19T02:25:49.094Z,85.00
2022-12-19T02:26:48.840Z,84.44
2022-12-19T02:27:49.025Z,84.05
2022-12-19T02:28:49.021Z,84.58
2022-12-19T02:29:48.177Z,84.27
2022-12-19T02:30:48.860Z,84.41
2022-12-19T02:31:48.247Z,85.66
2022-12-19T02:32:48.839Z,85.49
2022-12-19T02:33:49.065Z,86.19
2022-12-19T02:34:48.809Z,86.92
2022-12-19T02:35:48.791Z,84.93
2022-12-19T02:36:48.886Z,86.08
2022-12-19T02:37:50.218Z,84.72
2022-12-19T02:38:48.913Z,85.14
2022-12-19T02:39:49.562Z,85.21
2022-12-19T02:40:48.863Z,84.58
2022-12-19T02:41:48.884Z,83.84
2022-12-19T02:42:48.887Z,83.64
2022-12-19T02:43:49.993Z,84.05
2022-12-19T02:44:48.900Z,84.09
2022-12-19T02:45:48.036Z,85.83
2022-12-19T02:46:49.418Z,84.33
2022-12-19T02:47:48.662Z,83.22
2022-12-19T02:48:47.978Z,84.27
2022-12-19T02:49:49.443Z,84.47
2022-12-19T02:50:50.163Z,83.91
2022-12-19T02:51:48.870Z,83.70
2022-12-19T02:52:48.511Z,82.65
2022-12-19T02:53:48.703Z,82.59
2022-12-19T02:54:48.523Z,83.32
2022-12-19T02:55:48.772Z,83.95
2022-12-19T02:56:48.712Z,83.84
2022-12-19T02:57:48.678Z,83.64
2022-12-19T02:58:48.754Z,84.64
2022-12-19T02:59:48.762Z,84.54
2022-12-19T03:00:48.573Z,83.87
2022-12-19T03:01:48.880Z,82.68
2022-12-19T03:02:54.978Z,81.26
2022-12-19T03:03:49.435Z,81.67
2022-12-19T03:04:48.606Z,81.57
2022-12-19T03:05:48.406Z,81.88
2022-12-19T03:06:47.799Z,82.09
2022-12-19T03:07:49.350Z,82.09
2022-12-19T03:08:48.360Z,81.67
2022-12-19T03:09:47.804Z,82.40
2022-12-19T03:10:49.594Z,82.45
2022-12-19T03:11:48.360Z,83.35
2022-12-19T03:12:48.519Z,83.52
2022-12-19T03:13:48.591Z,81.43
2022-12-19T03:14:48.532Z,80.69
2022-12-19T03:15:47.711Z,81.43
2022-12-19T03:16:48.549Z,81.85
2022-12-19T03:17:48.442Z,81.53
2022-12-19T03:18:48.465Z,81.63
2022-12-19T03:19:48.515Z,81.63
2022-12-19T03:20:47.642Z,81.36
2022-12-19T03:21:49.004Z,81.78
2022-12-19T03:22:48.231Z,83.00
2022-12-19T03:23:47.645Z,81.74
2022-12-19T03:24:48.233Z,81.32
2022-12-19T03:25:47.683Z,80.90
2022-12-19T03:26:48.395Z,81.63
2022-12-19T03:27:48.406Z,82.06
2022-12-19T03:28:47.564Z,81.36
2022-12-19T03:29:48.394Z,83.10
2022-12-19T03:30:48.269Z,82.09
2022-12-19T03:31:48.568Z,82.40
2022-12-19T03:32:48.976Z,82.09
2022-12-19T03:33:48.354Z,82.30
2022-12-19T03:34:48.277Z,82.72
2022-12-19T03:35:48.087Z,82.82
2022-12-19T03:36:48.241Z,82.20
2022-12-19T03:37:48.208Z,82.51
2022-12-19T03:38:48.283Z,82.89
2022-12-19T03:39:48.139Z,82.16
2022-12-19T03:40:48.383Z,82.37
2022-12-19T03:41:48.076Z,82.23
2022-12-19T03:42:48.268Z,83.34
2022-12-19T03:43:48.200Z,80.66
2022-12-19T03:44:48.250Z,81.67
2022-12-19T03:45:48.204Z,81.87
2022-12-19T03:46:48.209Z,80.20
2022-12-19T03:47:48.240Z,79.79
2022-12-19T03:48:48.205Z,79.68
2022-12-19T03:49:48.214Z,80.93
2022-12-19T03:50:48.181Z,80.16
2022-12-19T03:51:48.072Z,80.20
2022-12-19T03:52:47.935Z,80.62
2022-12-19T03:53:48.232Z,79.89
2022-12-19T03:54:48.030Z,79.99
2022-12-19T03:55:48.215Z,79.89
2022-12-19T03:56:47.951Z,80.31
2022-12-19T03:57:48.181Z,79.44
2022-12-19T03:58:47.881Z,79.36
2022-12-19T03:59:48.318Z,79.89
2022-12-19T04:00:47.980Z,79.47
2022-12-19T04:01:48.173Z,79.99
2022-12-19T04:02:47.958Z,80.69
2022-12-19T04:03:48.078Z,79.44
2022-12-19T04:04:47.911Z,80.06
2022-12-19T04:05:48.035Z,79.26
2022-12-19T04:06:47.923Z,79.99
2022-12-19T04:07:47.951Z,80.10
2022-12-19T04:08:47.953Z,80.20
2022-12-19T04:09:47.778Z,79.79
2022-12-19T04:10:47.929Z,81.56
2022-12-19T04:11:47.743Z,80.38
2022-12-19T04:12:47.995Z,79.85
2022-12-19T04:13:48.036Z,79.96
2022-12-19T04:14:48.328Z,78.98
2022-12-19T04:15:47.147Z,78.91
2022-12-19T04:16:47.913Z,79.02
2022-12-19T04:17:47.783Z,79.75
2022-12-19T04:18:47.894Z,79.12
2022-12-19T04:19:47.860Z,79.02
2022-12-19T04:20:47.853Z,79.54
2022-12-19T04:21:47.819Z,79.12
2022-12-19T04:22:47.807Z,78.91
2022-12-19T04:23:47.808Z,79.64
2022-12-19T04:24:47.804Z,79.12
2022-12-19T04:25:47.847Z,79.44
2022-12-19T04:26:47.594Z,79.02
2022-12-19T04:27:47.805Z,78.81
2022-12-19T04:28:47.623Z,79.16
2022-12-19T04:29:47.803Z,79.54
2022-12-19T04:30:47.763Z,79.33
2022-12-19T04:31:47.848Z,79.12
2022-12-19T04:32:47.587Z,79.29
2022-12-19T04:33:47.774Z,77.97
2022-12-19T04:34:47.573Z,78.18
2022-12-19T04:35:47.747Z,79.44
2022-12-19T04:36:47.761Z,78.74
2022-12-19T04:37:47.724Z,79.61
2022-12-19T04:38:47.598Z,79.82
2022-12-19T04:39:47.532Z,79.40
2022-12-19T04:40:47.604Z,80.41
2022-12-19T04:41:47.435Z,79.89
2022-12-19T04:42:47.633Z,79.05
2022-12-19T04:43:47.534Z,78.85
2022-12-19T04:44:53.601Z,79.19
2022-12-19T04:45:49.015Z,78.88
2022-12-19T04:46:47.587Z,79.82
2022-12-19T04:47:47.463Z,80.41
2022-12-19T04:48:47.582Z,79.79
2022-12-19T04:49:47.714Z,79.68
2022-12-19T04:50:47.536Z,78.95
2022-12-19T04:51:47.484Z,79.36
2022-12-19T04:52:47.535Z,79.68
2022-12-19T04:53:47.464Z,79.61
2022-12-19T04:54:47.233Z,79.50
2022-12-19T04:55:47.562Z,79.30
2022-12-19T04:56:46.663Z,79.30
2022-12-19T04:57:47.481Z,79.75
2022-12-19T04:58:47.319Z,80.38
2022-12-19T04:59:47.472Z,80.17
2022-12-19T05:00:47.314Z,80.35
2022-12-19T05:01:47.572Z,80.03
2022-12-19T05:02:47.602Z,80.13
2022-12-19T05:03:52.681Z,80.35
2022-12-19T05:04:47.346Z,80.17
2022-12-19T05:05:47.415Z,79.96
2022-12-19T05:06:47.451Z,80.07
2022-12-19T05:07:47.448Z,80.59
2022-12-19T05:08:46.586Z,80.27
2022-12-19T05:09:47.277Z,80.59
2022-12-19T05:10:47.352Z,80.38
2022-12-19T05:11:47.156Z,81.01
2022-12-19T05:12:47.452Z,81.12
2022-12-19T05:13:47.218Z,80.73
2022-12-19T05:14:47.301Z,81.88
2022-12-19T05:15:47.308Z,81.63
2022-12-19T05:16:47.308Z,80.49
2022-12-19T05:17:47.158Z,81.49
2022-12-19T05:18:46.489Z,79.40
2022-12-19T05:19:47.360Z,79.61
2022-12-19T05:20:47.351Z,81.49
2022-12-19T05:21:47.265Z,79.61
2022-12-19T05:22:47.390Z,80.35
2022-12-19T05:23:46.386Z,80.35
2022-12-19T05:24:47.170Z,80.97
2022-12-19T05:25:46.422Z,80.55
2022-12-19T05:26:47.930Z,80.41
2022-12-19T05:27:47.181Z,79.68
2022-12-19T05:28:47.011Z,79.58
2022-12-19T05:29:47.130Z,80.31
2022-12-19T05:30:52.030Z,79.47
2022-12-19T05:31:47.219Z,79.61
2022-12-19T05:32:47.010Z,81.74
2022-12-19T05:33:47.144Z,81.18
2022-12-19T05:34:47.000Z,80.62
2022-12-19T05:35:47.229Z,80.35
2022-12-19T05:36:47.019Z,81.04
2022-12-19T05:37:47.267Z,80.27
2022-12-19T05:38:47.000Z,79.85
2022-12-19T05:39:47.479Z,79.36
2022-12-19T05:40:47.020Z,79.79
2022-12-19T05:41:49.176Z,79.79
2022-12-19T05:42:47.009Z,79.79
2022-12-19T05:43:47.090Z,80.13
2022-12-19T05:44:46.989Z,79.93
2022-12-19T05:45:46.886Z,81.49
2022-12-19T05:46:47.041Z,80.55
2022-12-19T05:47:46.954Z,80.97
2022-12-19T05:48:46.958Z,81.01
2022-12-19T05:49:47.070Z,81.63
2022-12-19T05:50:47.071Z,82.16
2022-12-19T05:51:46.877Z,81.95
2022-12-19T05:52:46.967Z,81.95
2022-12-19T05:53:46.898Z,81.32
2022-12-19T05:54:46.957Z,81.74
2022-12-19T05:55:46.906Z,81.85
2022-12-19T05:56:46.910Z,82.26
2022-12-19T05:57:46.787Z,81.85
2022-12-19T05:58:46.790Z,81.95
2022-12-19T05:59:47.042Z,81.63
2022-12-19T06:00:47.392Z,81.95
2022-12-19T06:01:46.949Z,81.67
2022-12-19T06:02:46.728Z,81.88
2022-12-19T06:03:46.949Z,82.40
2022-12-19T06:04:46.019Z,82.37
2022-12-19T06:05:46.847Z,81.70
2022-12-19T06:06:46.631Z,81.29
2022-12-19T06:07:46.037Z,81.92
2022-12-19T06:08:47.666Z,81.92
2022-12-19T06:09:46.906Z,80.35
2022-12-19T06:10:46.634Z,81.18
2022-12-19T06:11:46.777Z,80.45
2022-12-19T06:12:46.736Z,80.35
2022-12-19T06:13:46.212Z,81.01
2022-12-19T06:14:47.939Z,82.20
2022-12-19T06:15:46.692Z,82.47
2022-12-19T06:16:47.435Z,82.51
2022-12-19T06:17:46.490Z,82.89
2022-12-19T06:18:46.685Z,81.95
2022-12-19T06:19:46.597Z,81.74
2022-12-19T06:20:46.655Z,81.74
2022-12-19T06:21:48.498Z,82.37
2022-12-19T06:22:46.644Z,82.06
2022-12-19T06:23:46.522Z,81.85
2022-12-19T06:24:46.652Z,82.16
2022-12-19T06:25:46.605Z,82.62
2022-12-19T06:26:46.637Z,83.14
2022-12-19T06:27:46.605Z,83.21
2022-12-19T06:28:46.524Z,82.37
2022-12-19T06:29:46.503Z,83.00
2022-12-19T06:30:46.735Z,82.06
2022-12-19T06:31:47.167Z,82.68
2022-12-19T06:32:47.253Z,82.58
2022-12-19T06:33:46.807Z,82.26
2022-12-19T06:35:03.732Z,82.58
2022-12-19T06:35:47.154Z,82.65
2022-12-19T06:36:46.001Z,81.70
2022-12-19T06:37:46.564Z,81.77
2022-12-19T06:38:46.326Z,81.04
2022-12-19T06:39:47.033Z,80.55
2022-12-19T06:40:47.237Z,81.29
2022-12-19T06:41:47.092Z,82.06
2022-12-19T06:42:46.442Z,82.37
2022-12-19T06:43:49.192Z,82.51
2022-12-19T06:44:47.014Z,83.14
2022-12-19T06:45:46.290Z,83.03
2022-12-19T06:46:45.572Z,83.73
2022-12-19T06:47:46.767Z,82.06
2022-12-19T06:48:45.805Z,82.06
2022-12-19T06:49:46.242Z,82.79
2022-12-19T06:50:46.445Z,82.93
2022-12-19T06:51:45.522Z,83.10
2022-12-19T06:52:46.964Z,82.79
2022-12-19T06:53:45.982Z,82.89
2022-12-19T06:54:46.331Z,83.00
2022-12-19T06:55:46.241Z,82.37
2022-12-19T06:56:46.506Z,82.65
2022-12-19T06:57:46.191Z,81.49
2022-12-19T06:58:46.275Z,81.60
2022-12-19T06:59:46.177Z,81.60
2022-12-19T07:00:46.062Z,81.81
2022-12-19T07:01:46.496Z,81.67
2022-12-19T07:02:46.267Z,80.66
2022-12-19T07:03:46.174Z,80.97
2022-12-19T07:04:46.013Z,80.76
2022-12-19T07:05:46.191Z,80.80
2022-12-19T07:06:49.079Z,82.37
2022-12-19T07:07:45.443Z,82.09
2022-12-19T07:08:46.112Z,82.93
2022-12-19T07:09:46.139Z,83.03
2022-12-19T07:10:46.049Z,82.93
2022-12-19T07:11:46.142Z,83.56
2022-12-19T07:12:46.042Z,83.03
2022-12-19T07:13:45.382Z,83.25
2022-12-19T07:14:51.676Z,82.72
2022-12-19T07:15:46.140Z,83.03
2022-12-19T07:16:46.048Z,83.10
2022-12-19T07:17:45.270Z,82.47
2022-12-19T07:18:46.094Z,81.85
2022-12-19T07:19:45.931Z,81.63
2022-12-19T07:20:45.570Z,81.88
2022-12-19T07:21:46.579Z,82.62
2022-12-19T07:22:45.817Z,83.25
2022-12-19T07:23:45.889Z,83.00
2022-12-19T07:24:45.175Z,82.47
2022-12-19T07:25:46.651Z,82.47
2022-12-19T07:26:45.631Z,82.23
2022-12-19T07:27:45.172Z,81.95
2022-12-19T07:28:46.463Z,81.63
2022-12-19T07:29:45.880Z,81.99
2022-12-19T07:30:46.077Z,82.93
2022-12-19T07:31:47.107Z,83.35
2022-12-19T07:32:45.129Z,83.25
2022-12-19T07:33:45.924Z,82.58
2022-12-19T07:34:45.074Z,82.79
2022-12-19T07:35:46.550Z,81.92
2022-12-19T07:36:45.739Z,81.99
2022-12-19T07:37:45.120Z,83.35
2022-12-19T07:38:45.755Z,82.68
2022-12-19T07:39:46.326Z,82.33
2022-12-19T07:40:45.011Z,82.06
2022-12-19T07:41:46.449Z,81.81
2022-12-19T07:42:45.659Z,81.81
2022-12-19T07:43:45.878Z,81.12
2022-12-19T07:44:45.671Z,82.23
2022-12-19T07:45:45.148Z,81.63
2022-12-19T07:46:46.383Z,81.63
2022-12-19T07:47:45.405Z,82.75
2022-12-19T07:48:45.731Z,81.60
2022-12-19T07:49:44.981Z,81.07
2022-12-19T07:50:46.571Z,80.55
2022-12-19T07:51:45.319Z,81.07
2022-12-19T07:52:45.691Z,81.29
2022-12-19T07:53:45.622Z,81.29
2022-12-19T07:54:45.710Z,81.18
2022-12-19T07:55:45.641Z,81.39
2022-12-19T07:56:46.364Z,81.98
2022-12-19T07:57:46.341Z,80.16
2022-12-19T07:58:46.370Z,80.13
2022-12-19T07:59:44.825Z,81.18
2022-12-19T08:00:45.736Z,81.32
2022-12-19T08:01:45.779Z,80.27
2022-12-19T08:02:45.601Z,80.73
2022-12-19T08:03:46.394Z,80.73
2022-12-19T08:04:46.423Z,80.79
2022-12-19T08:05:46.219Z,80.65
2022-12-19T08:06:45.348Z,80.16
2022-12-19T08:07:45.921Z,80.38
2022-12-19T08:08:45.405Z,80.02
2022-12-19T08:09:44.795Z,79.08
2022-12-19T08:10:45.397Z,79.96
2022-12-19T08:11:44.736Z,80.20
2022-12-19T08:12:45.433Z,81.15
2022-12-19T08:13:47.052Z,81.52
2022-12-19T08:14:45.335Z,80.16
2022-12-19T08:15:45.476Z,80.69
2022-12-19T08:17:18.910Z,80.16
2022-12-19T08:17:45.539Z,80.62
2022-12-19T08:18:45.940Z,81.29
2022-12-19T08:19:45.309Z,82.12
2022-12-19T08:20:44.590Z,81.70
2022-12-19T08:21:45.319Z,82.09
2022-12-19T08:22:45.379Z,81.87
2022-12-19T08:23:45.260Z,81.04
2022-12-19T08:24:46.007Z,81.67
2022-12-19T08:25:45.300Z,81.46
2022-12-19T08:26:47.718Z,81.29
2022-12-19T08:27:45.409Z,81.63
2022-12-19T08:28:45.870Z,82.65
2022-12-19T08:29:45.880Z,82.54
2022-12-19T08:30:46.038Z,82.54
2022-12-19T08:31:45.279Z,82.75
2022-12-19T08:32:45.452Z,82.54
2022-12-19T08:33:45.308Z,82.02
2022-12-19T08:34:44.479Z,82.12
2022-12-19T08:35:45.161Z,83.17
2022-12-19T08:36:44.859Z,82.96
2022-12-19T08:37:45.310Z,82.65
2022-12-19T08:38:45.100Z,83.27
2022-12-19T08:39:44.414Z,82.23
2022-12-19T08:40:47.612Z,82.54
2022-12-19T08:41:45.949Z,82.23
2022-12-19T08:42:44.461Z,82.02
2022-12-19T08:43:46.002Z,82.37
2022-12-19T08:44:44.811Z,82.89
2022-12-19T08:45:44.408Z,82.89
2022-12-19T08:46:49.771Z,83.00
2022-12-19T08:47:45.141Z,83.69
2022-12-19T08:48:45.053Z,82.33
2022-12-19T08:49:44.362Z,81.92
2022-12-19T08:50:45.041Z,81.92
2022-12-19T08:51:45.001Z,81.49
2022-12-19T08:52:45.098Z,82.26
2022-12-19T08:53:44.893Z,82.75
2022-12-19T08:54:45.261Z,82.65
2022-12-19T08:55:44.961Z,82.58
2022-12-19T08:56:46.230Z,82.86
2022-12-19T08:57:44.860Z,82.58
2022-12-19T08:58:45.258Z,82.79
2022-12-19T08:59:44.992Z,83.27
2022-12-19T09:00:52.066Z,82.75
2022-12-19T09:01:45.639Z,83.03
2022-12-19T09:02:45.234Z,81.77
2022-12-19T09:04:27.928Z,81.56
2022-12-19T09:06:13.800Z,81.70
2022-12-19T09:06:24.795Z,82.65
2022-12-19T09:07:21.579Z,82.58
2022-12-19T09:08:19.441Z,82.79
2022-12-19T09:09:19.355Z,82.75
2022-12-19T09:10:19.461Z,82.33
2022-12-19T09:11:19.363Z,82.54
2022-12-19T09:12:19.612Z,82.96
2022-12-19T09:13:19.420Z,82.58
2022-12-19T09:14:21.020Z,83.31
2022-12-19T09:15:19.313Z,83.73
2022-12-19T09:16:19.426Z,83.38
2022-12-19T09:17:19.570Z,83.21
2022-12-19T09:18:19.371Z,82.65
2022-12-19T09:19:19.382Z,83.27
2022-12-19T09:20:23.239Z,82.75
2022-12-19T09:21:19.324Z,83.42
2022-12-19T09:22:19.142Z,83.48
2022-12-19T09:23:19.332Z,82.96
2022-12-19T09:24:19.127Z,83.17
2022-12-19T09:25:19.394Z,83.42
2022-12-19T09:26:19.120Z,83.10
2022-12-19T09:27:19.371Z,83.62
2022-12-19T09:28:27.871Z,83.52
2022-12-19T09:29:21.250Z,83.62
2022-12-19T09:30:18.435Z,83.52
2022-12-19T09:31:19.427Z,83.69
2022-12-19T09:32:19.093Z,83.52
2022-12-19T09:33:19.313Z,84.22
2022-12-19T09:34:19.162Z,83.90
2022-12-19T09:35:19.053Z,82.86
2022-12-19T09:36:19.141Z,83.06
2022-12-19T09:37:19.047Z,83.31
2022-12-19T09:38:19.111Z,84.00
2022-12-19T09:39:19.022Z,83.69
2022-12-19T09:40:19.147Z,83.76
2022-12-19T09:41:18.971Z,82.82
2022-12-19T09:42:19.173Z,82.71
2022-12-19T09:43:19.251Z,83.44
2022-12-19T09:44:19.205Z,82.46
2022-12-19T09:45:31.409Z,82.15
2022-12-19T09:46:19.269Z,82.36
2022-12-19T09:47:18.992Z,82.71
2022-12-19T09:48:24.088Z,82.86
2022-12-19T09:49:19.063Z,83.38
2022-12-19T09:50:18.832Z,83.80
2022-12-19T09:51:18.973Z,82.96
2022-12-19T09:52:18.821Z,82.86
2022-12-19T09:53:19.045Z,82.43
2022-12-19T09:54:18.845Z,82.50
2022-12-19T09:55:19.099Z,82.71
2022-12-19T09:56:18.932Z,82.60
2022-12-19T09:57:18.988Z,82.86
2022-12-19T09:58:19.405Z,83.59
2022-12-19T09:59:18.915Z,83.69
2022-12-19T10:00:19.401Z,83.86
2022-12-19T10:01:19.006Z,83.55
2022-12-19T10:02:19.329Z,83.20
2022-12-19T10:03:19.081Z,83.72
2022-12-19T10:04:19.539Z,82.46
2022-12-19T10:06:01.416Z,82.15
2022-12-19T10:07:33.140Z,82.46
2022-12-19T10:08:09.675Z,82.53
2022-12-19T10:08:28.062Z,81.18
2022-12-19T10:12:16.931Z,81.28
2022-12-19T10:12:58.357Z,80.96
2022-12-19T10:13:12.848Z,82.22
2022-12-19T10:14:05.435Z,82.22
2022-12-19T10:15:04.234Z,81.59
2022-12-19T10:16:04.487Z,81.45
2022-12-19T10:18:04.432Z,79.95
2022-12-19T10:19:04.315Z,79.57
2022-12-19T10:20:04.317Z,80.41
2022-12-19T10:21:04.273Z,80.79
2022-12-19T10:22:19.838Z,79.92
2022-12-19T10:23:04.201Z,81.18
2022-12-19T10:24:04.199Z,81.11
2022-12-19T10:25:08.763Z,82.05
2022-12-19T10:26:04.196Z,82.46
2022-12-19T10:27:04.304Z,82.67
2022-12-19T10:28:04.132Z,83.23
2022-12-19T10:29:05.515Z,83.13
2022-12-19T10:30:04.190Z,83.76
2022-12-19T10:31:12.447Z,83.83
2022-12-19T10:32:04.179Z,83.51
2022-12-19T10:33:04.159Z,83.51
2022-12-19T10:34:04.145Z,82.78
2022-12-19T10:35:03.856Z,83.40
2022-12-19T10:36:04.143Z,83.83
2022-12-19T10:37:26.717Z,83.51
2022-12-19T10:38:04.272Z,83.51
2022-12-19T10:39:03.975Z,83.44
2022-12-19T10:40:04.172Z,84.59
2022-12-19T10:41:03.926Z,83.93
2022-12-19T10:42:04.218Z,84.07
2022-12-19T10:43:10.470Z,84.00
2022-12-19T10:44:04.225Z,84.42
2022-12-19T10:45:03.970Z,84.53
2022-12-19T10:46:04.218Z,84.28
2022-12-19T10:47:04.574Z,84.49
2022-12-19T10:48:04.171Z,84.07
2022-12-19T10:49:03.985Z,83.59
2022-12-19T10:50:09.528Z,84.22
2022-12-19T10:51:06.795Z,84.84
2022-12-19T10:52:04.062Z,83.97
2022-12-19T10:53:03.969Z,84.07
2022-12-19T10:54:03.271Z,84.39
2022-12-19T10:55:03.921Z,84.49
2022-12-19T10:56:03.898Z,84.91
2022-12-19T10:57:03.943Z,84.28
2022-12-19T10:58:03.777Z,84.80
2022-12-19T10:59:04.773Z,85.08
2022-12-19T11:00:03.934Z,84.07
2022-12-19T11:01:03.948Z,83.97
2022-12-19T11:02:07.208Z,85.08
2022-12-19T11:03:04.321Z,83.37
2022-12-19T11:04:03.806Z,83.58
2022-12-19T11:05:04.060Z,83.51
2022-12-19T11:06:03.020Z,82.89
2022-12-19T11:07:03.939Z,83.72
2022-12-19T11:08:03.919Z,83.72
2022-12-19T11:09:03.633Z,83.76
2022-12-19T11:10:26.435Z,84.28
2022-12-19T11:13:11.964Z,84.17
2022-12-19T11:23:11.269Z,84.59
2022-12-19T11:32:47.580Z,84.83
2022-12-19T11:33:18.142Z,83.72
2022-12-19T11:34:17.853Z,83.72
2022-12-19T11:35:17.944Z,84.14
2022-12-19T11:36:17.933Z,84.52
2022-12-19T11:37:17.760Z,84.20
2022-12-19T11:38:18.940Z,83.68
2022-12-19T11:39:17.681Z,83.89
2022-12-19T11:40:17.930Z,83.68
2022-12-19T11:41:17.781Z,82.84
2022-12-19T11:42:18.502Z,82.84
2022-12-19T11:44:18.455Z,84.41
2022-12-19T11:45:17.006Z,83.68
2022-12-19T11:46:21.663Z,83.62
2022-12-19T11:47:17.755Z,83.93
2022-12-19T11:48:17.892Z,84.20
2022-12-19T11:49:16.968Z,84.69
2022-12-19T11:50:17.813Z,83.12
2022-12-19T11:51:17.681Z,83.06
2022-12-19T11:52:54.098Z,83.26
2022-12-19T11:53:19.388Z,83.68
2022-12-19T11:54:17.505Z,83.72
2022-12-19T11:55:16.897Z,84.10
2022-12-19T11:56:18.747Z,83.58
2022-12-19T11:57:17.733Z,83.89
2022-12-19T11:58:17.572Z,83.26
2022-12-19T11:59:16.862Z,83.58
2022-12-19T12:00:18.507Z,83.89
2022-12-19T12:01:17.834Z,83.89
2022-12-19T12:02:17.663Z,84.10
2022-12-19T12:03:18.247Z,84.69
2022-12-19T12:04:18.448Z,83.44
2022-12-19T12:05:18.356Z,83.33
2022-12-19T12:06:16.807Z,82.91
2022-12-19T12:07:50.585Z,83.95
2022-12-19T12:10:58.726Z,83.23
2022-12-19T12:29:05.419Z,83.47
2022-12-19T12:35:42.532Z,83.29
2022-12-19T12:38:21.507Z,82.87
2022-12-19T12:39:04.885Z,82.81
2022-12-19T12:40:04.621Z,83.33
2022-12-19T12:41:04.578Z,82.29
2022-12-19T12:42:04.485Z,83.71
2022-12-19T12:43:04.536Z,82.07
2022-12-19T12:44:04.416Z,82.29
2022-12-19T12:45:04.466Z,83.12
2022-12-19T12:46:04.527Z,83.12
2022-12-19T12:47:04.485Z,83.54
2022-12-19T12:48:04.516Z,83.64
2022-12-19T12:49:04.471Z,84.96
2022-12-19T12:50:04.523Z,83.54
2022-12-19T12:51:04.273Z,83.92
2022-12-19T12:52:04.491Z,83.29
2022-12-19T12:53:04.359Z,83.50
2022-12-19T12:54:04.493Z,83.36
2022-12-19T12:55:04.244Z,82.63
2022-12-19T12:56:06.972Z,82.00
2022-12-19T12:57:03.650Z,82.21
2022-12-19T12:58:06.121Z,82.42
2022-12-19T12:59:04.336Z,82.53
2022-12-19T13:00:04.443Z,83.11
2022-12-19T13:01:04.869Z,81.96
2022-12-19T13:02:04.555Z,81.96
2022-12-19T13:03:04.703Z,82.07
2022-12-19T13:04:04.367Z,82.07
2022-12-19T13:05:04.343Z,81.55
2022-12-19T13:06:03.508Z,81.41
2022-12-19T13:07:04.319Z,80.92
2022-12-19T13:08:04.105Z,81.02
2022-12-19T13:09:04.294Z,82.38
2022-12-19T13:10:04.255Z,81.34
2022-12-19T13:11:03.487Z,81.45
2022-12-19T13:12:04.188Z,81.13
2022-12-19T13:13:07.972Z,82.48
2022-12-19T13:14:04.987Z,81.65
2022-12-19T13:15:04.304Z,81.13
2022-12-19T13:16:03.393Z,81.55
2022-12-19T13:17:04.353Z,81.59
2022-12-19T13:18:04.147Z,82.25
2022-12-19T13:19:04.165Z,83.36
2022-12-19T13:20:03.426Z,82.94
2022-12-19T13:21:04.970Z,83.74
2022-12-19T13:22:03.885Z,81.55
2022-12-19T13:23:03.364Z,81.96
2022-12-19T13:24:05.306Z,82.07
2022-12-19T13:25:04.764Z,81.27
2022-12-19T13:26:03.360Z,81.96
2022-12-19T13:27:05.296Z,81.76
2022-12-19T13:28:04.178Z,82.90
2022-12-19T13:29:03.291Z,81.55
2022-12-19T13:30:04.235Z,81.06
2022-12-19T13:31:20.836Z,82.53
2022-12-19T13:32:04.110Z,82.21
2022-12-19T13:33:04.123Z,83.42
2022-12-19T13:34:04.014Z,82.17
2022-12-19T13:35:43.100Z,81.45
2022-12-19T13:40:04.545Z,82.07
2022-12-19T13:40:20.480Z,81.38
2022-12-19T13:40:32.544Z,81.90
2022-12-19T13:41:26.725Z,82.94
2022-12-19T13:42:26.528Z,81.90
2022-12-19T13:43:25.743Z,82.21
2022-12-19T13:44:26.934Z,82.84
2022-12-19T13:45:25.804Z,82.21